Time;durP1;ratioP1;P1;durP2;ratioP2;P2;SDS_P1;SDS_P2;PMS_P1;PMS_P2;Temp;Humidity;BMP_temperature;BMP_pressure;BME280_temperature;BME280_humidity;BME280_pressure;Samples;Min_cycle;Max_cycle;Signal;HPM_P1;HPM_P2
2023/04/25 00:01:08;;;;;;;16.40;5.90;;;;;;;;;;5013632;28;20461;-43
2023/04/25 00:03:35;;;;;;;13.07;7.00;;;;;;;;;;5013593;28;20400;-43
2023/04/25 00:06:04;;;;;;;15.77;6.38;;;;;;;;;;5013471;28;20201;-43
2023/04/25 00:08:30;;;;;;;10.43;6.15;;;;;;;;;;5013204;28;20226;-43
2023/04/25 00:10:57;;;;;;;18.80;7.95;;;;;;;;;;5013403;28;20652;-42
2023/04/25 00:13:23;;;;;;;19.27;8.27;;;;;;;;;;5012671;28;20183;-42
2023/04/25 00:15:50;;;;;;;16.50;6.87;;;;;;;;;;5013204;28;20177;-42
2023/04/25 00:18:17;;;;;;;22.85;7.90;;;;;;;;;;5012074;28;21293;-43
2023/04/25 00:20:46;;;;;;;14.77;6.75;;;;;;;;;;5013231;28;20192;-43
2023/04/25 00:23:17;;;;;;;10.07;5.93;;;;;;;;;;5013223;28;20168;-43
2023/04/25 00:25:43;;;;;;;9.00;6.17;;;;;;;;;;5013037;28;20663;-43
2023/04/25 00:28:09;;;;;;;14.25;7.20;;;;;;;;;;5012796;28;20774;-42
2023/04/25 00:30:35;;;;;;;19.37;7.07;;;;;;;;;;5013149;28;20168;-42
2023/04/25 00:33:01;;;;;;;13.40;6.40;;;;;;;;;;5013135;28;20833;-42
2023/04/25 00:35:27;;;;;;;14.63;7.10;;;;;;;;;;5012905;28;20388;-43
2023/04/25 00:37:54;;;;;;;16.73;7.13;;;;;;;;;;5012812;28;20791;-43
2023/04/25 00:40:21;;;;;;;13.97;8.13;;;;;;;;;;5012652;28;20410;-42
2023/04/25 00:42:47;;;;;;;12.20;6.73;;;;;;;;;;5012830;28;20562;-43
2023/04/25 00:45:17;;;;;;;14.88;7.20;;;;;;;;;;5011001;28;20529;-42
2023/04/25 00:47:43;;;;;;;15.52;7.07;;;;;;;;;;5012641;28;20192;-42
2023/04/25 00:50:10;;;;;;;12.73;7.85;;;;;;;;;;5012571;28;20165;-42
2023/04/25 00:52:37;;;;;;;10.47;5.93;;;;;;;;;;5012640;28;20177;-42
2023/04/25 00:55:04;;;;;;;14.60;6.60;;;;;;;;;;5011900;28;20830;-42
2023/04/25 00:57:30;;;;;;;11.18;6.43;;;;;;;;;;5012531;28;20749;-43
2023/04/25 00:59:56;;;;;;;13.33;6.13;;;;;;;;;;5012508;28;20187;-42
2023/04/25 01:02:22;;;;;;;21.20;6.67;;;;;;;;;;5012001;28;20800;-42
2023/04/25 01:04:48;;;;;;;11.60;7.47;;;;;;;;;;5012209;28;20952;-42
2023/04/25 01:07:15;;;;;;;16.77;6.70;;;;;;;;;;5011779;28;20414;-42
2023/04/25 01:09:41;;;;;;;16.37;6.50;;;;;;;;;;5011701;28;20161;-42
2023/04/25 01:12:07;;;;;;;17.23;6.82;;;;;;;;;;5012464;28;20458;-43
2023/04/25 01:14:33;;;;;;;12.60;7.27;;;;;;;;;;5010445;28;20177;-42
2023/04/25 01:16:59;;;;;;;10.07;7.30;;;;;;;;;;5011561;28;20804;-42
2023/04/25 01:19:26;;;;;;;13.73;7.60;;;;;;;;;;5011926;28;20445;-43
2023/04/25 01:21:52;;;;;;;16.63;7.68;;;;;;;;;;5012187;28;20255;-42
2023/04/25 01:24:18;;;;;;;12.93;7.20;;;;;;;;;;5010378;28;20271;-42
2023/04/25 01:26:49;;;;;;;17.63;8.77;;;;;;;;;;5012222;28;20483;-43
2023/04/25 01:29:15;;;;;;;14.80;8.50;;;;;;;;;;5011953;28;20447;-42
2023/04/25 01:31:41;;;;;;;14.83;8.67;;;;;;;;;;5012179;28;20443;-42
2023/04/25 01:34:07;;;;;;;14.90;7.80;;;;;;;;;;5012125;28;20399;-43
2023/04/25 01:36:34;;;;;;;11.33;7.00;;;;;;;;;;5012033;28;20873;-43
2023/04/25 01:39:01;;;;;;;22.08;8.93;;;;;;;;;;5011811;28;20427;-43
2023/04/25 01:41:27;;;;;;;13.80;8.33;;;;;;;;;;5012081;28;20637;-42
2023/04/25 01:43:53;;;;;;;13.15;7.55;;;;;;;;;;5012113;28;20454;-43
2023/04/25 01:46:19;;;;;;;14.90;7.97;;;;;;;;;;5010360;28;20200;-43
2023/04/25 01:48:45;;;;;;;16.80;8.30;;;;;;;;;;5011150;28;20458;-43
2023/04/25 01:51:11;;;;;;;16.08;9.00;;;;;;;;;;5011821;28;20395;-43
2023/04/25 01:53:37;;;;;;;14.80;8.30;;;;;;;;;;5012017;28;20196;-43
2023/04/25 01:56:04;;;;;;;13.88;7.70;;;;;;;;;;5011943;28;20411;-43
2023/04/25 01:58:30;;;;;;;30.65;10.38;;;;;;;;;;5011607;28;20200;-43
2023/04/25 02:00:56;;;;;;;14.47;8.50;;;;;;;;;;5011988;28;20242;-44
2023/04/25 02:03:21;;;;;;;18.10;8.20;;;;;;;;;;5011804;28;20844;-43
2023/04/25 02:05:48;;;;;;;19.07;8.17;;;;;;;;;;5011958;28;20454;-42
2023/04/25 02:08:14;;;;;;;11.98;7.20;;;;;;;;;;5013124;28;22108;-42
2023/04/25 02:10:40;;;;;;;18.07;8.43;;;;;;;;;;5023700;28;20161;-42
2023/04/25 02:13:06;;;;;;;17.27;7.50;;;;;;;;;;5015935;28;20408;-43
2023/04/25 02:15:32;;;;;;;13.23;7.53;;;;;;;;;;5017673;28;20188;-42
2023/04/25 02:17:59;;;;;;;24.10;8.65;;;;;;;;;;5026326;28;20608;-43
2023/04/25 02:20:26;;;;;;;13.37;8.23;;;;;;;;;;5020717;28;20176;-42
2023/04/25 02:22:52;;;;;;;15.80;8.00;;;;;;;;;;5014789;28;20415;-43
2023/04/25 02:25:19;;;;;;;17.40;9.50;;;;;;;;;;5016966;28;20256;-43
2023/04/25 02:27:45;;;;;;;19.03;8.40;;;;;;;;;;5021842;28;20992;-43
2023/04/25 02:30:12;;;;;;;14.97;8.10;;;;;;;;;;5026556;28;20494;-43
2023/04/25 02:32:38;;;;;;;18.00;8.30;;;;;;;;;;5021105;28;20407;-43
2023/04/25 02:35:05;;;;;;;18.33;9.17;;;;;;;;;;5015132;28;20419;-45
2023/04/25 02:37:31;;;;;;;20.65;9.35;;;;;;;;;;5018058;28;20501;-44
2023/04/25 02:39:57;;;;;;;15.68;8.35;;;;;;;;;;5010996;28;20181;-43
2023/04/25 02:42:23;;;;;;;13.00;9.10;;;;;;;;;;5025356;28;20543;-44
2023/04/25 02:44:49;;;;;;;16.80;8.90;;;;;;;;;;5020723;28;21035;-42
2023/04/25 02:47:15;;;;;;;18.35;9.02;;;;;;;;;;5022123;28;20466;-42
2023/04/25 02:49:41;;;;;;;21.37;9.13;;;;;;;;;;5019871;28;20172;-43
2023/04/25 02:52:07;;;;;;;20.70;9.77;;;;;;;;;;5018575;28;20408;-42
2023/04/25 02:54:33;;;;;;;22.92;9.73;;;;;;;;;;5014957;28;20461;-42
2023/04/25 02:56:58;;;;;;;14.97;6.60;;;;;;;;;;5022297;28;20898;-43
2023/04/25 02:59:24;;;;;;;14.83;9.27;;;;;;;;;;5023315;28;20430;-43
2023/04/25 03:01:50;;;;;;;14.23;8.50;;;;;;;;;;5017295;28;20493;-44
2023/04/25 03:04:18;;;;;;;26.77;9.03;;;;;;;;;;5024931;28;20415;-42
2023/04/25 03:06:44;;;;;;;22.00;9.70;;;;;;;;;;5020242;28;20891;-42
2023/04/25 03:09:10;;;;;;;19.53;9.13;;;;;;;;;;5015137;28;20430;-42
2023/04/25 03:11:37;;;;;;;24.13;10.02;;;;;;;;;;5021623;28;20415;-43
2023/04/25 03:14:03;;;;;;;15.32;8.82;;;;;;;;;;5025353;28;20175;-43
2023/04/25 03:16:30;;;;;;;14.80;8.13;;;;;;;;;;5022077;28;20675;-43
2023/04/25 03:18:56;;;;;;;19.73;9.30;;;;;;;;;;5011787;28;20471;-42
2023/04/25 03:21:22;;;;;;;17.50;8.73;;;;;;;;;;5015363;28;20536;-43
2023/04/25 03:23:48;;;;;;;25.30;8.82;;;;;;;;;;5020582;28;20407;-44
2023/04/25 03:26:15;;;;;;;12.57;7.25;;;;;;;;;;5025709;28;20222;-43
2023/04/25 03:28:42;;;;;;;9.80;6.80;;;;;;;;;;5019965;28;20271;-43
2023/04/25 03:31:08;;;;;;;12.43;6.33;;;;;;;;;;5021299;28;20419;-43
2023/04/25 03:33:34;;;;;;;17.93;7.37;;;;;;;;;;5017906;28;20410;-43
2023/04/25 03:35:59;;;;;;;13.90;7.37;;;;;;;;;;5010491;28;20994;-43
2023/04/25 03:38:25;;;;;;;27.07;8.43;;;;;;;;;;5024073;28;20460;-42
2023/04/25 03:40:52;;;;;;;21.20;8.50;;;;;;;;;;5020253;28;20417;-42
2023/04/25 03:43:18;;;;;;;12.82;7.80;;;;;;;;;;5022550;28;20402;-42
2023/04/25 03:45:44;;;;;;;15.57;7.87;;;;;;;;;;5018133;28;20204;-43
2023/04/25 03:48:10;;;;;;;18.80;9.43;;;;;;;;;;5017119;28;20439;-43
2023/04/25 03:50:36;;;;;;;19.00;7.60;;;;;;;;;;5014153;28;20509;-44
2023/04/25 03:53:02;;;;;;;15.73;8.10;;;;;;;;;;5020995;28;20403;-43
2023/04/25 03:55:28;;;;;;;14.53;7.63;;;;;;;;;;5023543;28;20410;-42
2023/04/25 03:57:54;;;;;;;18.07;8.40;;;;;;;;;;5017333;28;20570;-41
2023/04/25 04:00:20;;;;;;;18.20;7.10;;;;;;;;;;5018315;28;20896;-41
2023/04/25 04:02:46;;;;;;;13.68;7.28;;;;;;;;;;5019559;28;20509;-41
2023/04/25 04:05:12;;;;;;;16.83;7.33;;;;;;;;;;5014635;28;20717;-41
2023/04/25 04:07:39;;;;;;;15.10;7.10;;;;;;;;;;5021382;28;20494;-42
2023/04/25 04:10:12;;;;;;;13.82;7.88;;;;;;;;;;5013418;28;20407;-41
2023/04/25 04:12:38;;;;;;;31.38;9.52;;;;;;;;;;5021207;28;20585;-42
2023/04/25 04:15:05;;;;;;;13.87;7.40;;;;;;;;;;4999950;28;20185;-41
2023/04/25 04:17:31;;;;;;;12.55;8.95;;;;;;;;;;5007164;28;20512;-42
2023/04/25 04:19:57;;;;;;;20.52;8.60;;;;;;;;;;5022012;28;20212;-41
2023/04/25 04:22:23;;;;;;;14.20;5.73;;;;;;;;;;5024276;28;20221;-42
2023/04/25 04:24:52;;;;;;;12.10;7.77;;;;;;;;;;5020304;28;20451;-42
2023/04/25 04:27:22;;;;;;;10.38;5.50;;;;;;;;;;5020416;28;20915;-44
2023/04/25 04:29:48;;;;;;;6.38;4.10;;;;;;;;;;5016331;28;20179;-42
2023/04/25 04:32:14;;;;;;;10.65;5.00;;;;;;;;;;5011219;28;20210;-42
2023/04/25 04:34:41;;;;;;;9.80;4.95;;;;;;;;;;5023402;28;20728;-42
2023/04/25 04:37:07;;;;;;;9.70;4.97;;;;;;;;;;5019866;28;20172;-42
2023/04/25 04:39:36;;;;;;;9.33;3.93;;;;;;;;;;5017651;28;20205;-42
2023/04/25 04:42:03;;;;;;;9.35;4.60;;;;;;;;;;5022363;28;20457;-41
2023/04/25 04:44:29;;;;;;;7.53;4.63;;;;;;;;;;5016152;28;20195;-44
2023/04/25 04:46:55;;;;;;;6.45;4.45;;;;;;;;;;5018952;28;20176;-42
2023/04/25 04:49:21;;;;;;;9.20;4.50;;;;;;;;;;5019861;28;20282;-43
2023/04/25 04:51:49;;;;;;;6.30;4.13;;;;;;;;;;5024128;28;20418;-43
2023/04/25 04:54:15;;;;;;;17.23;4.53;;;;;;;;;;5017692;28;20187;-42
2023/04/25 04:56:41;;;;;;;9.57;5.17;;;;;;;;;;5012797;28;20267;-41
2023/04/25 04:59:07;;;;;;;10.38;4.43;;;;;;;;;;5017857;28;20423;-41
2023/04/25 05:01:35;;;;;;;8.80;4.55;;;;;;;;;;5016607;28;20172;-41
2023/04/25 05:04:03;;;;;;;11.98;5.15;;;;;;;;;;5027238;28;20169;-41
2023/04/25 05:06:29;;;;;;;7.57;4.38;;;;;;;;;;5018170;28;20196;-42
2023/04/25 05:08:55;;;;;;;9.63;5.38;;;;;;;;;;5020277;28;20219;-42
2023/04/25 05:11:22;;;;;;;9.90;4.45;;;;;;;;;;5015148;28;20175;-41
2023/04/25 05:13:48;;;;;;;6.93;5.47;;;;;;;;;;5009624;28;20652;-42
2023/04/25 05:16:14;;;;;;;11.70;4.30;;;;;;;;;;5016639;28;20196;-42
2023/04/25 05:18:41;;;;;;;6.87;5.30;;;;;;;;;;5018238;28;20470;-41
2023/04/25 05:21:06;;;;;;;8.82;5.18;;;;;;;;;;5023757;28;20827;-42
2023/04/25 05:23:33;;;;;;;10.33;5.80;;;;;;;;;;5016672;28;20185;-42
2023/04/25 05:25:59;;;;;;;10.45;5.40;;;;;;;;;;5016239;28;20548;-41
2023/04/25 05:28:25;;;;;;;20.88;5.47;;;;;;;;;;5012053;28;20195;-41
2023/04/25 05:30:52;;;;;;;10.02;5.75;;;;;;;;;;5021759;28;20179;-40
2023/04/25 05:33:18;;;;;;;12.38;6.05;;;;;;;;;;5021091;28;20176;-41
2023/04/25 05:35:44;;;;;;;12.60;5.85;;;;;;;;;;5015918;28;20188;-41
2023/04/25 05:38:10;;;;;;;17.90;8.32;;;;;;;;;;5019872;28;20588;-41
2023/04/25 05:40:37;;;;;;;10.48;4.95;;;;;;;;;;5017200;28;20194;-41
2023/04/25 05:43:03;;;;;;;10.52;5.60;;;;;;;;;;5019979;28;20416;-41
2023/04/25 05:45:29;;;;;;;15.60;6.50;;;;;;;;;;5025440;28;20694;-41
2023/04/25 05:47:55;;;;;;;11.93;7.03;;;;;;;;;;5028836;28;20437;-41
2023/04/25 05:50:21;;;;;;;10.00;6.43;;;;;;;;;;5026842;28;20586;-41
2023/04/25 05:52:47;;;;;;;10.30;6.33;;;;;;;;;;5016870;28;20174;-42
2023/04/25 05:55:13;;;;;;;10.10;6.13;;;;;;;;;;5022381;28;20934;-42
2023/04/25 05:57:44;;;;;;;13.37;7.93;;;;;;;;;;5022094;28;20427;-41
2023/04/25 06:00:13;;;;;;;17.93;7.63;;;;;;;;;;5029186;28;20407;-44
2023/04/25 06:02:39;;;;;;;20.40;8.52;;;;;;;;;;5025058;28;20422;-47
2023/04/25 06:05:05;;;;;;;10.23;7.10;;;;;;;;;;5026230;28;20207;-44
2023/04/25 06:07:31;;;;;;;17.50;6.70;;;;;;;;;;5032844;28;20413;-41
2023/04/25 06:09:57;;;;;;;24.70;9.33;;;;;;;;;;5036979;28;20394;-42
2023/04/25 06:12:23;;;;;;;15.90;7.13;;;;;;;;;;5036246;28;20440;-42
2023/04/25 06:14:49;;;;;;;19.87;8.20;;;;;;;;;;5037342;28;20434;-42
2023/04/25 06:17:15;;;;;;;19.20;8.10;;;;;;;;;;5032198;28;20431;-42
2023/04/25 06:19:41;;;;;;;15.13;7.90;;;;;;;;;;5016722;28;20582;-41
2023/04/25 06:22:08;;;;;;;12.30;7.63;;;;;;;;;;5019651;28;20511;-42
2023/04/25 06:24:34;;;;;;;14.30;9.17;;;;;;;;;;5018146;28;20420;-42
2023/04/25 06:27:00;;;;;;;16.70;10.47;;;;;;;;;;5018984;28;20397;-41
2023/04/25 06:29:27;;;;;;;17.50;8.70;;;;;;;;;;5019764;28;20451;-42
2023/04/25 06:31:53;;;;;;;18.00;8.57;;;;;;;;;;5017293;28;20423;-43
2023/04/25 06:34:19;;;;;;;16.33;9.00;;;;;;;;;;5017848;28;20396;-43
2023/04/25 06:36:45;;;;;;;18.93;8.63;;;;;;;;;;5017998;28;20782;-45
2023/04/25 06:39:11;;;;;;;17.23;10.33;;;;;;;;;;5018022;28;20479;-43
2023/04/25 06:41:37;;;;;;;19.67;9.57;;;;;;;;;;5017942;28;20814;-45
2023/04/25 06:44:03;;;;;;;22.20;12.17;;;;;;;;;;5017927;28;20422;-44
2023/04/25 06:46:29;;;;;;;17.70;10.33;;;;;;;;;;5017807;28;20460;-44
2023/04/25 06:48:55;;;;;;;23.30;11.30;;;;;;;;;;5015872;28;20415;-44
2023/04/25 06:51:21;;;;;;;14.60;7.73;;;;;;;;;;5016091;28;20431;-43
2023/04/25 06:53:47;;;;;;;14.20;6.73;;;;;;;;;;5013528;28;20476;-45
2023/04/25 06:56:13;;;;;;;19.73;9.67;;;;;;;;;;5012663;28;20496;-44
2023/04/25 06:58:39;;;;;;;16.60;6.70;;;;;;;;;;5013389;28;20456;-44
2023/04/25 07:01:05;;;;;;;18.53;6.40;;;;;;;;;;5014559;28;20458;-43
2023/04/25 07:03:31;;;;;;;8.53;5.60;;;;;;;;;;5014633;28;20444;-44
2023/04/25 07:05:57;;;;;;;8.17;5.70;;;;;;;;;;5014542;28;20497;-44
2023/04/25 07:08:23;;;;;;;14.60;6.90;;;;;;;;;;5014442;28;20510;-44
2023/04/25 07:10:49;;;;;;;19.90;6.93;;;;;;;;;;5014588;28;20408;-44
2023/04/25 07:13:14;;;;;;;16.50;7.23;;;;;;;;;;5014513;28;20414;-43
2023/04/25 07:15:41;;;;;;;14.17;6.33;;;;;;;;;;5014467;28;20924;-44
2023/04/25 07:18:07;;;;;;;18.23;7.87;;;;;;;;;;5013606;28;20545;-45
2023/04/25 07:20:33;;;;;;;20.83;6.73;;;;;;;;;;5019708;28;20497;-44
2023/04/25 07:22:59;;;;;;;8.80;5.20;;;;;;;;;;5016662;28;20424;-43
2023/04/25 07:25:25;;;;;;;16.10;6.80;;;;;;;;;;5025398;28;20465;-44
2023/04/25 07:27:51;;;;;;;11.30;6.77;;;;;;;;;;5020494;28;20443;-44
2023/04/25 07:30:18;;;;;;;12.53;5.77;;;;;;;;;;5024392;28;20487;-44
2023/04/25 07:32:45;;;;;;;12.93;5.57;;;;;;;;;;5019983;28;20468;-44
2023/04/25 07:35:11;;;;;;;10.87;6.50;;;;;;;;;;5020853;28;20427;-44
2023/04/25 07:37:37;;;;;;;18.00;6.80;;;;;;;;;;5018691;28;20522;-45
2023/04/25 07:40:03;;;;;;;12.50;7.23;;;;;;;;;;5021717;28;20784;-44
2023/04/25 07:42:29;;;;;;;20.50;6.53;;;;;;;;;;5025434;28;20501;-44
2023/04/25 07:44:55;;;;;;;12.20;6.27;;;;;;;;;;5018533;28;20477;-43
2023/04/25 07:47:21;;;;;;;9.10;6.70;;;;;;;;;;5019695;28;20495;-44
2023/04/25 07:49:47;;;;;;;15.77;7.03;;;;;;;;;;5020585;28;20405;-44
2023/04/25 07:52:14;;;;;;;15.60;6.47;;;;;;;;;;5015371;28;20460;-43
2023/04/25 07:54:40;;;;;;;11.20;5.57;;;;;;;;;;5021735;28;20449;-44
2023/04/25 07:57:06;;;;;;;10.67;5.87;;;;;;;;;;5023573;28;20461;-45
2023/04/25 07:59:32;;;;;;;9.90;5.23;;;;;;;;;;5024030;28;20442;-44
2023/04/25 08:01:58;;;;;;;13.50;5.30;;;;;;;;;;5014934;28;20411;-44
2023/04/25 08:04:25;;;;;;;14.40;6.67;;;;;;;;;;5015426;28;20923;-43
2023/04/25 08:06:52;;;;;;;12.73;5.50;;;;;;;;;;5021265;28;20399;-45
2023/04/25 08:09:18;;;;;;;12.60;4.37;;;;;;;;;;5024583;28;20427;-45
2023/04/25 08:11:44;;;;;;;10.33;4.37;;;;;;;;;;5021327;28;20474;-44
2023/04/25 08:14:10;;;;;;;7.50;4.00;;;;;;;;;;5022072;28;20416;-44
2023/04/25 08:16:36;;;;;;;12.20;5.10;;;;;;;;;;5012495;28;20784;-43
2023/04/25 08:19:02;;;;;;;9.40;3.90;;;;;;;;;;5017470;28;20448;-45
2023/04/25 08:21:28;;;;;;;16.43;4.33;;;;;;;;;;5011324;28;20417;-44
2023/04/25 08:23:54;;;;;;;5.07;2.80;;;;;;;;;;5021949;28;20413;-44
2023/04/25 08:26:20;;;;;;;8.83;3.43;;;;;;;;;;5017881;28;20473;-44
2023/04/25 08:28:46;;;;;;;5.73;3.37;;;;;;;;;;5019409;28;20429;-43
2023/04/25 08:31:12;;;;;;;6.60;3.43;;;;;;;;;;5024603;28;20444;-43
2023/04/25 08:33:38;;;;;;;10.57;3.13;;;;;;;;;;5011900;28;20409;-45
2023/04/25 08:36:05;;;;;;;9.73;2.97;;;;;;;;;;5014863;28;20475;-42
2023/04/25 08:38:31;;;;;;;9.20;3.30;;;;;;;;;;5012973;28;20469;-43
2023/04/25 08:40:57;;;;;;;13.93;3.90;;;;;;;;;;5012855;28;20409;-43
2023/04/25 08:43:24;;;;;;;5.87;3.20;;;;;;;;;;5012655;28;20410;-43
2023/04/25 08:45:51;;;;;;;9.17;3.60;;;;;;;;;;5011541;28;20473;-43
2023/04/25 08:48:17;;;;;;;9.60;4.00;;;;;;;;;;5012380;28;20465;-43
2023/04/25 08:50:51;;;;;;;4.23;2.70;;;;;;;;;;5012727;28;20412;-43
2023/04/25 08:53:19;;;;;;;7.00;3.47;;;;;;;;;;5012553;28;20449;-42
2023/04/25 08:55:46;;;;;;;11.67;3.63;;;;;;;;;;5011939;28;20495;-43
2023/04/25 08:58:13;;;;;;;12.23;4.03;;;;;;;;;;5010976;28;20542;-42
2023/04/25 09:00:39;;;;;;;11.00;4.50;;;;;;;;;;5027007;28;20407;-42
2023/04/25 09:03:05;;;;;;;10.13;4.17;;;;;;;;;;5030293;28;20778;-43
2023/04/25 09:05:32;;;;;;;13.50;3.40;;;;;;;;;;5031861;28;20545;-41
2023/04/25 09:08:00;;;;;;;8.67;3.27;;;;;;;;;;5016530;28;20444;-42
2023/04/25 09:10:26;;;;;;;8.67;2.40;;;;;;;;;;5012370;28;20409;-44
2023/04/25 09:13:03;;;;;;;4.90;3.40;;;;;;;;;;5012135;28;20408;-44
2023/04/25 09:15:29;;;;;;;5.17;2.47;;;;;;;;;;5011132;28;20434;-42
2023/04/25 09:17:59;;;;;;;7.43;2.73;;;;;;;;;;5011863;28;20490;-42
2023/04/25 09:20:26;;;;;;;9.20;3.47;;;;;;;;;;5012162;28;20406;-42
2023/04/25 09:23:06;;;;;;;19.30;3.60;;;;;;;;;;5012261;28;20409;-41
2023/04/25 09:25:39;;;;;;;6.67;2.93;;;;;;;;;;5012073;28;20613;-42
2023/04/25 09:28:06;;;;;;;12.60;3.20;;;;;;;;;;5011749;28;20415;-41
2023/04/25 09:30:33;;;;;;;6.83;2.90;;;;;;;;;;5010353;28;20901;-45
2023/04/25 09:33:09;;;;;;;7.03;3.40;;;;;;;;;;5011301;28;21004;-42
2023/04/25 09:35:37;;;;;;;8.67;2.70;;;;;;;;;;5012090;28;20398;-42
2023/04/25 09:38:07;;;;;;;8.93;3.37;;;;;;;;;;5011632;28;20433;-42
2023/04/25 09:40:33;;;;;;;10.23;4.10;;;;;;;;;;5012172;28;20490;-42
2023/04/25 09:42:59;;;;;;;13.53;2.87;;;;;;;;;;5012064;28;20854;-43
2023/04/25 09:45:25;;;;;;;3.83;2.60;;;;;;;;;;5011972;28;20876;-41
2023/04/25 09:47:57;;;;;;;10.20;4.60;;;;;;;;;;5011848;28;20416;-41
2023/04/25 09:50:24;;;;;;;4.73;3.20;;;;;;;;;;5009753;28;20434;-41
2023/04/25 09:53:03;;;;;;;9.73;4.10;;;;;;;;;;5012139;28;20391;-42
2023/04/25 09:55:29;;;;;;;10.63;3.53;;;;;;;;;;5011888;28;20456;-41
2023/04/25 09:57:59;;;;;;;7.13;3.60;;;;;;;;;;5012522;28;20418;-41
2023/04/25 10:00:25;;;;;;;7.60;3.10;;;;;;;;;;5011711;28;20399;-42
2023/04/25 10:02:52;;;;;;;12.63;4.20;;;;;;;;;;5011701;28;20396;-41
2023/04/25 10:05:18;;;;;;;12.80;3.30;;;;;;;;;;5011881;28;20461;-41
2023/04/25 10:07:44;;;;;;;4.27;3.23;;;;;;;;;;5009777;28;20804;-42
2023/04/25 10:10:13;;;;;;;2.93;2.43;;;;;;;;;;5010874;28;20431;-41
2023/04/25 10:12:40;;;;;;;4.37;2.33;;;;;;;;;;5011836;28;20745;-42
2023/04/25 10:15:07;;;;;;;5.40;2.83;;;;;;;;;;5011676;28;20403;-42
2023/04/25 10:17:34;;;;;;;5.23;3.10;;;;;;;;;;5011397;28;20886;-44
2023/04/25 10:20:03;;;;;;;6.07;2.67;;;;;;;;;;5011482;28;20411;-42
2023/04/25 10:22:41;;;;;;;3.43;2.30;;;;;;;;;;5011616;28;20372;-42
2023/04/25 10:25:08;;;;;;;3.13;2.70;;;;;;;;;;5011578;28;20458;-42
2023/04/25 10:27:34;;;;;;;10.10;4.23;;;;;;;;;;5011788;28;20439;-41
2023/04/25 10:30:04;;;;;;;4.80;2.73;;;;;;;;;;5015022;28;20390;-41
2023/04/25 10:32:32;;;;;;;4.70;2.40;;;;;;;;;;5015359;28;20404;-42
2023/04/25 10:34:58;;;;;;;5.53;2.73;;;;;;;;;;5015246;28;20400;-42
2023/04/25 10:37:24;;;;;;;3.63;2.83;;;;;;;;;;5015022;28;20476;-42
2023/04/25 10:39:53;;;;;;;5.70;2.70;;;;;;;;;;5014953;28;20925;-42
2023/04/25 10:42:19;;;;;;;8.13;3.70;;;;;;;;;;5014942;28;20754;-41
2023/04/25 10:45:01;;;;;;;6.20;3.10;;;;;;;;;;5014974;28;20429;-41
2023/04/25 10:47:35;;;;;;;5.43;3.20;;;;;;;;;;5012914;28;20428;-41
2023/04/25 10:50:06;;;;;;;4.37;3.07;;;;;;;;;;5013993;28;20835;-41
2023/04/25 10:52:33;;;;;;;12.93;3.40;;;;;;;;;;5014920;28;20421;-41
2023/04/25 10:55:00;;;;;;;6.93;2.83;;;;;;;;;;5014706;28;20819;-41
2023/04/25 10:57:43;;;;;;;7.20;3.30;;;;;;;;;;5014651;28;20414;-41
2023/04/25 11:00:10;;;;;;;3.23;2.17;;;;;;;;;;5014639;28;20875;-41
2023/04/25 11:02:48;;;;;;;3.47;2.73;;;;;;;;;;5014759;28;20405;-41
2023/04/25 11:05:23;;;;;;;6.13;2.70;;;;;;;;;;5014494;28;20546;-41
2023/04/25 11:07:50;;;;;;;8.60;2.93;;;;;;;;;;5014418;28;20494;-41
2023/04/25 11:10:16;;;;;;;8.80;3.57;;;;;;;;;;5014203;28;20402;-42
2023/04/25 11:12:42;;;;;;;4.00;2.53;;;;;;;;;;5012423;28;20489;-43
2023/04/25 11:15:08;;;;;;;4.83;2.10;;;;;;;;;;5014498;28;20411;-41
2023/04/25 11:17:35;;;;;;;5.67;3.80;;;;;;;;;;5014168;28;20911;-43
2023/04/25 11:20:01;;;;;;;7.27;4.20;;;;;;;;;;5018298;28;20430;-41
2023/04/25 11:22:28;;;;;;;6.23;3.17;;;;;;;;;;5016197;28;20512;-41
2023/04/25 11:24:54;;;;;;;12.03;3.07;;;;;;;;;;5014110;28;20459;-41
2023/04/25 11:27:21;;;;;;;9.40;3.70;;;;;;;;;;5023965;28;20928;-41
2023/04/25 11:29:50;;;;;;;10.03;3.40;;;;;;;;;;5014244;28;20624;-41
2023/04/25 11:32:16;;;;;;;6.23;3.50;;;;;;;;;;5008357;28;20407;-42
2023/04/25 11:34:45;;;;;;;5.03;2.97;;;;;;;;;;5017772;28;20402;-41
2023/04/25 11:37:12;;;;;;;4.87;2.63;;;;;;;;;;5013023;28;20411;-41
2023/04/25 11:39:38;;;;;;;10.77;5.80;;;;;;;;;;5005523;28;20447;-45
2023/04/25 11:42:05;;;;;;;4.10;3.13;;;;;;;;;;5004456;28;20459;-43
2023/04/25 11:44:31;;;;;;;6.37;3.63;;;;;;;;;;5006457;28;20428;-41
2023/04/25 11:46:57;;;;;;;12.57;3.50;;;;;;;;;;5006384;28;20785;-41
2023/04/25 11:49:24;;;;;;;7.30;3.57;;;;;;;;;;4999941;28;20454;-41
2023/04/25 11:51:50;;;;;;;6.70;3.10;;;;;;;;;;4994142;28;20764;-42
2023/04/25 11:54:16;;;;;;;10.20;5.60;;;;;;;;;;5006991;28;20784;-41
2023/04/25 11:56:45;;;;;;;3.83;3.03;;;;;;;;;;5012584;28;20414;-41
2023/04/25 11:59:13;;;;;;;7.37;3.17;;;;;;;;;;5013430;28;20794;-43
2023/04/25 12:01:48;;;;;;;5.70;3.03;;;;;;;;;;5013498;28;20428;-42
2023/04/25 12:04:18;;;;;;;3.70;2.33;;;;;;;;;;5012427;28;20425;-45
2023/04/25 12:06:48;;;;;;;6.00;3.93;;;;;;;;;;5012670;28;20455;-43
2023/04/25 12:09:15;;;;;;;4.30;3.17;;;;;;;;;;5013458;28;20444;-45
2023/04/25 12:11:45;;;;;;;8.07;2.57;;;;;;;;;;5013553;28;20536;-42
2023/04/25 12:14:12;;;;;;;3.27;2.27;;;;;;;;;;5012575;28;20765;-44
2023/04/25 12:16:45;;;;;;;3.77;2.43;;;;;;;;;;5013281;28;20832;-42
2023/04/25 12:19:14;;;;;;;8.87;2.77;;;;;;;;;;5013102;28;20949;-42
2023/04/25 12:21:40;;;;;;;4.13;2.33;;;;;;;;;;5013196;28;20488;-42
2023/04/25 12:24:12;;;;;;;2.63;2.13;;;;;;;;;;5013389;28;20469;-42
2023/04/25 12:26:48;;;;;;;4.03;3.10;;;;;;;;;;5013123;28;20455;-42
2023/04/25 12:29:17;;;;;;;6.17;2.37;;;;;;;;;;5013230;28;20522;-42
2023/04/25 12:31:44;;;;;;;3.50;2.57;;;;;;;;;;5013143;28;20440;-42
2023/04/25 12:34:10;;;;;;;3.70;2.40;;;;;;;;;;5012118;28;20407;-42
2023/04/25 12:36:36;;;;;;;2.30;2.10;;;;;;;;;;5013017;28;20406;-43
2023/04/25 12:39:04;;;;;;;6.57;2.20;;;;;;;;;;5011021;28;20480;-41
2023/04/25 12:41:30;;;;;;;8.63;2.50;;;;;;;;;;5012198;28;20428;-42
2023/04/25 12:43:56;;;;;;;3.07;2.13;;;;;;;;;;5013137;28;20433;-42
2023/04/25 12:46:22;;;;;;;6.10;2.70;;;;;;;;;;5012794;28;20918;-44
2023/04/25 12:48:48;;;;;;;4.43;2.90;;;;;;;;;;5012456;28;20957;-42
2023/04/25 12:51:15;;;;;;;4.00;2.30;;;;;;;;;;5011897;28;20385;-43
2023/04/25 12:53:41;;;;;;;4.37;2.40;;;;;;;;;;5012755;28;20409;-41
2023/04/25 12:56:07;;;;;;;6.13;2.63;;;;;;;;;;5012598;28;20407;-42
2023/04/25 12:58:34;;;;;;;3.03;2.20;;;;;;;;;;5012395;28;20482;-42
2023/04/25 13:00:59;;;;;;;7.70;2.40;;;;;;;;;;5012683;28;20749;-41
2023/04/25 13:03:26;;;;;;;4.93;3.33;;;;;;;;;;5012603;28;20394;-42
2023/04/25 13:05:52;;;;;;;3.37;2.40;;;;;;;;;;5012432;28;20429;-42
2023/04/25 13:08:21;;;;;;;6.23;4.00;;;;;;;;;;5010365;28;21006;-42
2023/04/25 13:10:50;;;;;;;7.93;2.33;;;;;;;;;;5012927;28;20400;-42
2023/04/25 13:13:16;;;;;;;2.90;2.27;;;;;;;;;;5011661;28;20481;-43
2023/04/25 13:15:42;;;;;;;4.93;2.57;;;;;;;;;;5012377;28;20403;-43
2023/04/25 13:18:08;;;;;;;3.87;2.50;;;;;;;;;;5011860;28;20502;-43
2023/04/25 13:20:34;;;;;;;5.77;2.40;;;;;;;;;;5012350;28;20411;-41
2023/04/25 13:23:00;;;;;;;3.13;2.43;;;;;;;;;;5012206;28;20412;-41
2023/04/25 13:25:26;;;;;;;4.30;2.13;;;;;;;;;;5012198;28;20455;-41
2023/04/25 13:27:52;;;;;;;11.37;3.40;;;;;;;;;;5012175;28;20562;-41
2023/04/25 13:30:18;;;;;;;6.50;3.07;;;;;;;;;;5011917;28;20439;-41
2023/04/25 13:32:44;;;;;;;4.93;2.63;;;;;;;;;;5012166;28;20399;-42
2023/04/25 13:35:15;;;;;;;11.90;2.83;;;;;;;;;;5012164;28;20403;-42
2023/04/25 13:37:40;;;;;;;3.93;2.70;;;;;;;;;;5011915;28;20864;-42
2023/04/25 13:40:09;;;;;;;9.97;2.90;;;;;;;;;;5011024;28;20459;-42
2023/04/25 13:42:36;;;;;;;9.10;3.00;;;;;;;;;;5012068;28;20831;-41
2023/04/25 13:45:02;;;;;;;4.03;2.63;;;;;;;;;;5012025;28;20462;-42
2023/04/25 13:47:28;;;;;;;3.93;2.53;;;;;;;;;;5011869;28;20956;-41
2023/04/25 13:49:54;;;;;;;4.83;2.90;;;;;;;;;;5011898;28;20395;-41
2023/04/25 13:52:20;;;;;;;10.80;2.53;;;;;;;;;;5011965;28;20418;-41
2023/04/25 13:54:46;;;;;;;4.90;2.47;;;;;;;;;;5012008;28;20427;-41
2023/04/25 13:57:13;;;;;;;4.97;2.47;;;;;;;;;;5012056;28;20395;-41
2023/04/25 13:59:40;;;;;;;6.47;2.67;;;;;;;;;;5011535;28;20919;-42
2023/04/25 14:02:07;;;;;;;5.57;3.27;;;;;;;;;;5012622;28;20402;-41
2023/04/25 14:04:33;;;;;;;5.83;2.80;;;;;;;;;;5015837;28;20489;-41
2023/04/25 14:06:59;;;;;;;4.87;3.13;;;;;;;;;;5015629;28;20546;-44
2023/04/25 14:09:27;;;;;;;3.13;2.37;;;;;;;;;;5014639;28;20816;-43
2023/04/25 14:11:53;;;;;;;7.07;2.17;;;;;;;;;;5015133;28;21012;-42
2023/04/25 14:14:19;;;;;;;3.10;2.10;;;;;;;;;;5015668;28;20381;-42
2023/04/25 14:16:47;;;;;;;7.90;2.77;;;;;;;;;;5015657;28;20907;-41
2023/04/25 14:19:13;;;;;;;4.30;2.40;;;;;;;;;;5015136;28;20421;-42
2023/04/25 14:21:39;;;;;;;5.40;2.20;;;;;;;;;;5015472;28;20725;-42
2023/04/25 14:24:06;;;;;;;3.63;2.30;;;;;;;;;;5015705;28;20390;-42
2023/04/25 14:26:32;;;;;;;3.73;2.40;;;;;;;;;;5015476;28;20889;-42
2023/04/25 14:28:58;;;;;;;4.30;2.30;;;;;;;;;;5015151;28;20509;-42
2023/04/25 14:31:24;;;;;;;4.43;3.10;;;;;;;;;;5015401;28;20405;-42
2023/04/25 14:33:50;;;;;;;6.70;2.63;;;;;;;;;;5015366;28;20416;-42